sensor_id;sensor_type;location;lat;lon;timestamp;pressure;altitude;pressure_sealevel;temperature;humidity
59391;BME280;53405;57.012;40.984;2023-02-05T00:00:58;100808.75;;;-1.13;91.44
59391;BME280;53405;57.012;40.984;2023-02-05T00:03:45;100809.00;;;-1.18;91.69
59391;BME280;53405;57.012;40.984;2023-02-05T00:06:33;100816.50;;;-1.13;91.74
59391;BME280;53405;57.012;40.984;2023-02-05T00:09:21;100807.47;;;-1.22;91.74
59391;BME280;53405;57.012;40.984;2023-02-05T00:12:09;100811.19;;;-1.10;91.79
59391;BME280;53405;57.012;40.984;2023-02-05T00:14:57;100754.47;;;-1.45;91.74
59391;BME280;53405;57.012;40.984;2023-02-05T00:17:45;100815.41;;;-1.09;91.57
59391;BME280;53405;57.012;40.984;2023-02-05T00:20:33;100810.16;;;-1.07;91.17
59391;BME280;53405;57.012;40.984;2023-02-05T00:23:22;100811.50;;;-1.16;91.17
59391;BME280;53405;57.012;40.984;2023-02-05T00:26:10;100804.16;;;-1.24;91.12
59391;BME280;53405;57.012;40.984;2023-02-05T00:29:00;100818.31;;;-1.15;91.08
59391;BME280;53405;57.012;40.984;2023-02-05T00:31:48;100817.66;;;-1.19;91.18
59391;BME280;53405;57.012;40.984;2023-02-05T00:34:35;100816.25;;;-1.24;91.20
59391;BME280;53405;57.012;40.984;2023-02-05T00:37:23;100814.66;;;-1.27;91.22
59391;BME280;53405;57.012;40.984;2023-02-05T00:40:11;100816.19;;;-1.23;91.29
59391;BME280;53405;57.012;40.984;2023-02-05T00:42:59;100813.66;;;-1.24;90.81
59391;BME280;53405;57.012;40.984;2023-02-05T00:45:46;100819.81;;;-1.27;90.87
59391;BME280;53405;57.012;40.984;2023-02-05T00:48:34;100819.00;;;-1.28;90.71
59391;BME280;53405;57.012;40.984;2023-02-05T00:51:22;100816.63;;;-1.48;90.56
59391;BME280;53405;57.012;40.984;2023-02-05T00:54:10;100826.03;;;-1.47;91.12
59391;BME280;53405;57.012;40.984;2023-02-05T00:56:57;100818.75;;;-1.56;91.04
59391;BME280;53405;57.012;40.984;2023-02-05T00:59:45;100801.81;;;-1.78;91.36
59391;BME280;53405;57.012;40.984;2023-02-05T01:02:32;100819.09;;;-1.80;91.86
59391;BME280;53405;57.012;40.984;2023-02-05T01:05:20;100820.03;;;-1.81;91.95
59391;BME280;53405;57.012;40.984;2023-02-05T01:08:10;100822.63;;;-1.81;91.98
59391;BME280;53405;57.012;40.984;2023-02-05T01:10:58;100820.19;;;-1.84;92.27
59391;BME280;53405;57.012;40.984;2023-02-05T01:13:46;100823.06;;;-1.90;92.33
59391;BME280;53405;57.012;40.984;2023-02-05T01:16:34;100819.19;;;-1.99;92.88
59391;BME280;53405;57.012;40.984;2023-02-05T01:19:21;100822.00;;;-2.04;93.12
59391;BME280;53405;57.012;40.984;2023-02-05T01:22:08;100822.94;;;-2.05;93.03
59391;BME280;53405;57.012;40.984;2023-02-05T01:24:58;100824.59;;;-2.04;93.11
59391;BME280;53405;57.012;40.984;2023-02-05T01:27:45;100832.41;;;-2.05;93.03
59391;BME280;53405;57.012;40.984;2023-02-05T01:30:33;100833.41;;;-2.08;93.22
59391;BME280;53405;57.012;40.984;2023-02-05T01:33:21;100830.13;;;-2.11;93.43
59391;BME280;53405;57.012;40.984;2023-02-05T01:36:09;100829.38;;;-2.13;93.70
59391;BME280;53405;57.012;40.984;2023-02-05T01:38:57;100828.09;;;-2.22;93.87
59391;BME280;53405;57.012;40.984;2023-02-05T01:41:45;100835.63;;;-2.17;94.15
59391;BME280;53405;57.012;40.984;2023-02-05T01:44:33;100824.53;;;-2.20;94.21
59391;BME280;53405;57.012;40.984;2023-02-05T01:47:21;100830.53;;;-2.19;94.01
59391;BME280;53405;57.012;40.984;2023-02-05T01:50:08;100816.41;;;-2.29;94.14
59391;BME280;53405;57.012;40.984;2023-02-05T01:52:59;100836.59;;;-2.20;94.39
59391;BME280;53405;57.012;40.984;2023-02-05T01:55:53;100836.75;;;-2.23;94.42
59391;BME280;53405;57.012;40.984;2023-02-05T01:58:51;100824.28;;;-2.32;94.53
59391;BME280;53405;57.012;40.984;2023-02-05T02:01:41;100847.59;;;-2.16;94.79
59391;BME280;53405;57.012;40.984;2023-02-05T02:07:22;100855.63;;;-2.05;94.08
59391;BME280;53405;57.012;40.984;2023-02-05T02:10:13;100838.81;;;-2.12;94.19
59391;BME280;53405;57.012;40.984;2023-02-05T02:13:01;100853.91;;;-2.05;93.78
59391;BME280;53405;57.012;40.984;2023-02-05T02:15:49;100859.00;;;-2.03;93.77
59391;BME280;53405;57.012;40.984;2023-02-05T02:18:38;100866.69;;;-2.02;93.74
59391;BME280;53405;57.012;40.984;2023-02-05T02:33:49;100862.94;;;-1.96;93.42
59391;BME280;53405;57.012;40.984;2023-02-05T02:37:00;100860.19;;;-1.93;93.66
59391;BME280;53405;57.012;40.984;2023-02-05T02:40:07;100862.88;;;-1.94;93.39
59391;BME280;53405;57.012;40.984;2023-02-05T02:43:06;100872.38;;;-1.95;93.34
59391;BME280;53405;57.012;40.984;2023-02-05T02:46:01;100864.78;;;-1.98;93.40
59391;BME280;53405;57.012;40.984;2023-02-05T02:48:53;100863.00;;;-1.97;93.64
59391;BME280;53405;57.012;40.984;2023-02-05T02:51:45;100868.81;;;-1.92;93.30
59391;BME280;53405;57.012;40.984;2023-02-05T02:54:36;100871.13;;;-2.05;92.94
59391;BME280;53405;57.012;40.984;2023-02-05T02:57:27;100865.50;;;-2.13;93.47
59391;BME280;53405;57.012;40.984;2023-02-05T03:00:19;100873.19;;;-2.12;93.63
59391;BME280;53405;57.012;40.984;2023-02-05T03:03:10;100871.44;;;-2.11;93.97
59391;BME280;53405;57.012;40.984;2023-02-05T03:06:02;100855.94;;;-2.29;93.73
59391;BME280;53405;57.012;40.984;2023-02-05T03:09:00;100859.66;;;-2.34;93.93
59391;BME280;53405;57.012;40.984;2023-02-05T03:11:50;100880.97;;;-2.31;94.02
59391;BME280;53405;57.012;40.984;2023-02-05T03:14:39;100868.91;;;-2.30;94.46
59391;BME280;53405;57.012;40.984;2023-02-05T03:17:27;100869.63;;;-2.27;94.16
59391;BME280;53405;57.012;40.984;2023-02-05T03:20:25;100864.66;;;-2.31;94.29
59391;BME280;53405;57.012;40.984;2023-02-05T03:23:15;100878.72;;;-2.20;94.10
59391;BME280;53405;57.012;40.984;2023-02-05T03:26:03;100877.13;;;-2.22;93.97
59391;BME280;53405;57.012;40.984;2023-02-05T03:29:12;100877.59;;;-2.14;93.82
59391;BME280;53405;57.012;40.984;2023-02-05T03:35:38;100875.00;;;-2.14;93.87
59391;BME280;53405;57.012;40.984;2023-02-05T03:54:31;100883.06;;;-2.20;94.21
59391;BME280;53405;57.012;40.984;2023-02-05T03:57:24;100879.31;;;-2.14;93.90
59391;BME280;53405;57.012;40.984;2023-02-05T04:00:16;100882.59;;;-2.11;94.09
59391;BME280;53405;57.012;40.984;2023-02-05T04:03:06;100879.59;;;-2.02;93.70
59391;BME280;53405;57.012;40.984;2023-02-05T04:05:55;100882.25;;;-2.03;93.18
59391;BME280;53405;57.012;40.984;2023-02-05T04:08:42;100881.47;;;-2.05;93.52
59391;BME280;53405;57.012;40.984;2023-02-05T04:11:33;100870.44;;;-2.09;93.16
59391;BME280;53405;57.012;40.984;2023-02-05T04:14:22;100875.91;;;-2.15;93.36
59391;BME280;53405;57.012;40.984;2023-02-05T04:17:11;100880.25;;;-2.15;93.61
59391;BME280;53405;57.012;40.984;2023-02-05T04:20:00;100885.19;;;-2.11;93.25
59391;BME280;53405;57.012;40.984;2023-02-05T04:22:49;100896.50;;;-2.13;93.41
59391;BME280;53405;57.012;40.984;2023-02-05T04:25:38;100877.66;;;-2.15;93.17
59391;BME280;53405;57.012;40.984;2023-02-05T04:28:28;100875.16;;;-2.17;93.00
59391;BME280;53405;57.012;40.984;2023-02-05T04:31:16;100883.88;;;-2.20;93.40
59391;BME280;53405;57.012;40.984;2023-02-05T04:34:04;100882.38;;;-2.24;93.48
59391;BME280;53405;57.012;40.984;2023-02-05T04:36:52;100878.03;;;-2.23;93.49
59391;BME280;53405;57.012;40.984;2023-02-05T04:39:40;100888.28;;;-2.22;93.09
59391;BME280;53405;57.012;40.984;2023-02-05T04:42:28;100888.22;;;-2.20;93.51
59391;BME280;53405;57.012;40.984;2023-02-05T04:45:16;100897.63;;;-2.19;93.66
59391;BME280;53405;57.012;40.984;2023-02-05T04:48:03;100900.16;;;-2.17;93.44
59391;BME280;53405;57.012;40.984;2023-02-05T04:50:52;100898.03;;;-2.09;93.94
59391;BME280;53405;57.012;40.984;2023-02-05T04:53:40;100905.41;;;-2.02;93.45
59391;BME280;53405;57.012;40.984;2023-02-05T04:56:27;100908.44;;;-1.93;93.27
59391;BME280;53405;57.012;40.984;2023-02-05T04:59:15;100911.91;;;-1.94;92.90
59391;BME280;53405;57.012;40.984;2023-02-05T05:02:03;100913.69;;;-1.95;93.00
59391;BME280;53405;57.012;40.984;2023-02-05T05:04:50;100916.94;;;-1.91;92.91
59391;BME280;53405;57.012;40.984;2023-02-05T05:07:38;100905.41;;;-2.02;92.24
59391;BME280;53405;57.012;40.984;2023-02-05T05:10:26;100921.34;;;-1.93;92.63
59391;BME280;53405;57.012;40.984;2023-02-05T05:13:13;100914.78;;;-2.01;92.38
59391;BME280;53405;57.012;40.984;2023-02-05T05:16:01;100923.75;;;-2.08;92.36
59391;BME280;53405;57.012;40.984;2023-02-05T05:18:52;100895.28;;;-2.24;92.37
59391;BME280;53405;57.012;40.984;2023-02-05T05:21:40;100916.53;;;-2.19;92.40
59391;BME280;53405;57.012;40.984;2023-02-05T05:24:27;100927.91;;;-2.23;92.83
59391;BME280;53405;57.012;40.984;2023-02-05T05:27:15;100924.72;;;-2.28;92.95
59391;BME280;53405;57.012;40.984;2023-02-05T05:30:05;100929.78;;;-2.26;93.15
59391;BME280;53405;57.012;40.984;2023-02-05T05:32:52;100911.41;;;-2.38;93.27
59391;BME280;53405;57.012;40.984;2023-02-05T05:35:40;100931.47;;;-2.25;93.28
59391;BME280;53405;57.012;40.984;2023-02-05T05:38:28;100939.69;;;-2.17;93.11
59391;BME280;53405;57.012;40.984;2023-02-05T05:41:18;100941.19;;;-2.13;92.89
59391;BME280;53405;57.012;40.984;2023-02-05T05:49:28;100934.34;;;-2.31;92.44
59391;BME280;53405;57.012;40.984;2023-02-05T05:52:16;100926.28;;;-2.43;92.95
59391;BME280;53405;57.012;40.984;2023-02-05T05:55:04;100946.47;;;-2.33;92.79
59391;BME280;53405;57.012;40.984;2023-02-05T05:57:51;100942.09;;;-2.31;93.31
59391;BME280;53405;57.012;40.984;2023-02-05T06:00:39;100943.59;;;-2.27;93.02
59391;BME280;53405;57.012;40.984;2023-02-05T06:03:27;100957.13;;;-2.22;92.93
59391;BME280;53405;57.012;40.984;2023-02-05T06:06:15;100955.47;;;-2.23;92.29
59391;BME280;53405;57.012;40.984;2023-02-05T06:09:02;100952.81;;;-2.22;92.41
59391;BME280;53405;57.012;40.984;2023-02-05T06:11:50;100950.44;;;-2.26;92.22
59391;BME280;53405;57.012;40.984;2023-02-05T06:14:37;100945.50;;;-2.31;92.27
59391;BME280;53405;57.012;40.984;2023-02-05T06:17:25;100957.56;;;-2.31;92.39
59391;BME280;53405;57.012;40.984;2023-02-05T06:20:14;100949.09;;;-2.35;92.16
59391;BME280;53405;57.012;40.984;2023-02-05T06:23:02;100958.47;;;-2.32;92.21
59391;BME280;53405;57.012;40.984;2023-02-05T06:25:49;100953.59;;;-2.39;92.03
59391;BME280;53405;57.012;40.984;2023-02-05T06:28:37;100958.75;;;-2.39;92.21
59391;BME280;53405;57.012;40.984;2023-02-05T06:31:24;100968.25;;;-2.39;92.18
59391;BME280;53405;57.012;40.984;2023-02-05T06:34:12;100947.47;;;-2.55;92.13
59391;BME280;53405;57.012;40.984;2023-02-05T06:36:59;100969.00;;;-2.37;92.15
59391;BME280;53405;57.012;40.984;2023-02-05T06:39:47;100977.78;;;-2.22;92.13
59391;BME280;53405;57.012;40.984;2023-02-05T06:42:34;100977.31;;;-2.13;91.83
59391;BME280;53405;57.012;40.984;2023-02-05T06:45:22;100975.25;;;-2.05;91.19
59391;BME280;53405;57.012;40.984;2023-02-05T06:48:09;100985.22;;;-1.97;90.49
59391;BME280;53405;57.012;40.984;2023-02-05T06:50:57;100984.63;;;-2.04;90.19
59391;BME280;53405;57.012;40.984;2023-02-05T06:53:44;100979.00;;;-2.12;90.31
59391;BME280;53405;57.012;40.984;2023-02-05T06:56:32;100992.06;;;-2.15;90.55
59391;BME280;53405;57.012;40.984;2023-02-05T06:59:20;100995.41;;;-2.13;90.53
59391;BME280;53405;57.012;40.984;2023-02-05T07:02:11;100999.16;;;-2.01;90.93
59391;BME280;53405;57.012;40.984;2023-02-05T07:04:59;101002.91;;;-1.89;90.34
59391;BME280;53405;57.012;40.984;2023-02-05T07:07:47;100997.94;;;-1.75;89.78
59391;BME280;53405;57.012;40.984;2023-02-05T07:10:36;100999.28;;;-1.68;89.16
59391;BME280;53405;57.012;40.984;2023-02-05T07:13:23;101006.34;;;-1.71;89.03
59391;BME280;53405;57.012;40.984;2023-02-05T07:16:11;101001.25;;;-1.90;88.47
59391;BME280;53405;57.012;40.984;2023-02-05T07:18:58;101008.06;;;-1.89;89.33
59391;BME280;53405;57.012;40.984;2023-02-05T07:21:46;100999.84;;;-1.97;89.01
59391;BME280;53405;57.012;40.984;2023-02-05T07:24:33;101012.91;;;-2.01;89.33
59391;BME280;53405;57.012;40.984;2023-02-05T07:27:21;101018.78;;;-1.97;89.22
59391;BME280;53405;57.012;40.984;2023-02-05T07:30:09;101017.91;;;-1.97;89.36
59391;BME280;53405;57.012;40.984;2023-02-05T07:32:57;101024.91;;;-2.00;89.00
59391;BME280;53405;57.012;40.984;2023-02-05T07:35:46;101021.66;;;-2.03;89.12
59391;BME280;53405;57.012;40.984;2023-02-05T07:38:35;101018.34;;;-2.07;89.55
59391;BME280;53405;57.012;40.984;2023-02-05T07:41:23;101022.41;;;-2.01;89.46
59391;BME280;53405;57.012;40.984;2023-02-05T07:44:13;101027.28;;;-1.95;89.30
59391;BME280;53405;57.012;40.984;2023-02-05T07:47:01;101001.06;;;-2.05;89.37
59391;BME280;53405;57.012;40.984;2023-02-05T07:49:48;101014.19;;;-2.09;88.86
59391;BME280;53405;57.012;40.984;2023-02-05T07:52:36;101026.38;;;-2.13;89.50
59391;BME280;53405;57.012;40.984;2023-02-05T07:55:24;101026.75;;;-2.21;89.82
59391;BME280;53405;57.012;40.984;2023-02-05T07:58:11;101029.25;;;-2.19;90.33
59391;BME280;53405;57.012;40.984;2023-02-05T08:01:01;101023.19;;;-2.18;89.81
59391;BME280;53405;57.012;40.984;2023-02-05T08:03:48;101023.31;;;-2.21;89.59
59391;BME280;53405;57.012;40.984;2023-02-05T08:06:36;101001.50;;;-2.33;89.87
59391;BME280;53405;57.012;40.984;2023-02-05T08:09:24;101024.66;;;-2.12;90.41
59391;BME280;53405;57.012;40.984;2023-02-05T08:12:12;101022.13;;;-1.95;90.23
59391;BME280;53405;57.012;40.984;2023-02-05T08:15:00;101018.84;;;-1.98;89.50
59391;BME280;53405;57.012;40.984;2023-02-05T08:17:49;101019.75;;;-2.00;89.53
59391;BME280;53405;57.012;40.984;2023-02-05T08:20:37;101027.00;;;-1.89;89.69
59391;BME280;53405;57.012;40.984;2023-02-05T08:23:24;101028.97;;;-1.94;88.60
59391;BME280;53405;57.012;40.984;2023-02-05T08:26:11;101024.09;;;-2.00;88.88
59391;BME280;53405;57.012;40.984;2023-02-05T08:29:01;101024.84;;;-1.98;88.86
59391;BME280;53405;57.012;40.984;2023-02-05T08:31:49;101018.78;;;-1.97;89.16
59391;BME280;53405;57.012;40.984;2023-02-05T08:34:37;101030.53;;;-1.91;89.00
59391;BME280;53405;57.012;40.984;2023-02-05T08:37:25;101032.19;;;-1.71;89.39
59391;BME280;53405;57.012;40.984;2023-02-05T08:40:13;101037.22;;;-1.51;88.56
59391;BME280;53405;57.012;40.984;2023-02-05T08:43:01;101031.47;;;-1.38;87.61
59391;BME280;53405;57.012;40.984;2023-02-05T08:45:48;101036.63;;;-1.38;87.15
59391;BME280;53405;57.012;40.984;2023-02-05T08:48:36;101033.03;;;-1.36;86.80
59391;BME280;53405;57.012;40.984;2023-02-05T08:51:24;101032.81;;;-1.31;86.66
59391;BME280;53405;57.012;40.984;2023-02-05T08:54:11;101010.56;;;-1.34;86.27
59391;BME280;53405;57.012;40.984;2023-02-05T08:57:01;101032.38;;;-1.22;86.27
59391;BME280;53405;57.012;40.984;2023-02-05T08:59:48;101030.56;;;-1.20;86.19
59391;BME280;53405;57.012;40.984;2023-02-05T09:02:36;101028.22;;;-1.24;86.30
59391;BME280;53405;57.012;40.984;2023-02-05T09:05:23;101011.69;;;-1.22;86.76
59391;BME280;53405;57.012;40.984;2023-02-05T09:08:11;101029.06;;;-0.91;85.65
59391;BME280;53405;57.012;40.984;2023-02-05T09:10:59;101034.88;;;-1.03;85.33
59391;BME280;53405;57.012;40.984;2023-02-05T09:13:52;101038.75;;;-0.94;86.49
59391;BME280;53405;57.012;40.984;2023-02-05T09:16:41;101017.34;;;-0.80;85.83
59391;BME280;53405;57.012;40.984;2023-02-05T09:19:29;101038.84;;;-0.46;84.63
59391;BME280;53405;57.012;40.984;2023-02-05T09:22:23;101014.69;;;-0.79;84.08
59391;BME280;53405;57.012;40.984;2023-02-05T09:25:12;101029.66;;;-0.85;84.85
59391;BME280;53405;57.012;40.984;2023-02-05T09:28:00;101030.13;;;-0.95;85.06
59391;BME280;53405;57.012;40.984;2023-02-05T09:30:47;101044.84;;;-1.13;85.92
59391;BME280;53405;57.012;40.984;2023-02-05T09:33:35;101046.06;;;-1.02;87.60
59391;BME280;53405;57.012;40.984;2023-02-05T09:36:23;101039.41;;;-0.91;87.89
59391;BME280;53405;57.012;40.984;2023-02-05T09:39:11;101046.16;;;-0.70;87.57
59391;BME280;53405;57.012;40.984;2023-02-05T09:49:27;101038.88;;;-0.80;83.39
59391;BME280;53405;57.012;40.984;2023-02-05T09:52:21;101042.16;;;-0.94;83.95
59391;BME280;53405;57.012;40.984;2023-02-05T09:58:06;101041.88;;;-1.05;84.08
59391;BME280;53405;57.012;40.984;2023-02-05T10:03:51;101045.91;;;-1.17;84.35
59391;BME280;53405;57.012;40.984;2023-02-05T10:13:35;101053.50;;;-0.96;85.43
59391;BME280;53405;57.012;40.984;2023-02-05T10:22:28;101050.41;;;-0.69;83.68
59391;BME280;53405;57.012;40.984;2023-02-05T10:28:47;101048.34;;;-0.63;83.75
59391;BME280;53405;57.012;40.984;2023-02-05T10:34:45;101054.66;;;-0.68;83.69
59391;BME280;53405;57.012;40.984;2023-02-05T10:37:51;101063.72;;;-0.60;83.41
59391;BME280;53405;57.012;40.984;2023-02-05T10:40:40;101054.88;;;-0.56;83.05
59391;BME280;53405;57.012;40.984;2023-02-05T10:43:47;101047.66;;;-0.66;82.14
59391;BME280;53405;57.012;40.984;2023-02-05T10:46:36;101053.19;;;-0.73;82.14
59391;BME280;53405;57.012;40.984;2023-02-05T10:49:53;101031.53;;;-1.05;81.87
59391;BME280;53405;57.012;40.984;2023-02-05T10:52:43;101053.75;;;-1.01;82.80
59391;BME280;53405;57.012;40.984;2023-02-05T10:55:30;101068.31;;;-1.00;84.27
59391;BME280;53405;57.012;40.984;2023-02-05T11:01:29;101056.31;;;-0.83;82.50
59391;BME280;53405;57.012;40.984;2023-02-05T11:04:27;101057.53;;;-1.08;81.37
59391;BME280;53405;57.012;40.984;2023-02-05T11:07:39;101063.91;;;-1.15;82.71
59391;BME280;53405;57.012;40.984;2023-02-05T11:10:31;101052.53;;;-1.11;83.36
59391;BME280;53405;57.012;40.984;2023-02-05T11:13:20;101040.97;;;-1.04;84.58
59391;BME280;53405;57.012;40.984;2023-02-05T11:16:08;101033.19;;;-0.86;83.51
59391;BME280;53405;57.012;40.984;2023-02-05T11:18:59;101057.41;;;-0.71;83.61
59391;BME280;53405;57.012;40.984;2023-02-05T11:24:42;101038.56;;;-0.74;82.96
59391;BME280;53405;57.012;40.984;2023-02-05T11:27:31;101057.41;;;-0.71;83.80
59391;BME280;53405;57.012;40.984;2023-02-05T11:30:33;101066.47;;;-0.63;82.52
59391;BME280;53405;57.012;40.984;2023-02-05T11:33:40;101057.97;;;-0.82;83.46
59391;BME280;53405;57.012;40.984;2023-02-05T11:36:28;101063.25;;;-0.68;82.98
59391;BME280;53405;57.012;40.984;2023-02-05T11:39:30;101063.06;;;-0.81;81.82
59391;BME280;53405;57.012;40.984;2023-02-05T11:42:24;101071.13;;;-0.87;82.89
59391;BME280;53405;57.012;40.984;2023-02-05T11:45:16;101052.50;;;-0.94;83.10
59391;BME280;53405;57.012;40.984;2023-02-05T11:51:13;101071.34;;;-0.92;83.39
59391;BME280;53405;57.012;40.984;2023-02-05T11:54:11;101073.19;;;-0.94;84.65
59391;BME280;53405;57.012;40.984;2023-02-05T11:57:36;101068.94;;;-0.95;83.84
59391;BME280;53405;57.012;40.984;2023-02-05T12:00:28;101052.81;;;-1.00;83.77
59391;BME280;53405;57.012;40.984;2023-02-05T12:03:17;101071.34;;;-0.92;83.57
59391;BME280;53405;57.012;40.984;2023-02-05T12:06:16;101059.28;;;-0.91;83.87
59391;BME280;53405;57.012;40.984;2023-02-05T12:09:09;101061.56;;;-0.85;83.99
59391;BME280;53405;57.012;40.984;2023-02-05T12:12:31;101065.13;;;-0.87;84.57
59391;BME280;53405;57.012;40.984;2023-02-05T12:15:34;101070.91;;;-0.82;83.63
59391;BME280;53405;57.012;40.984;2023-02-05T12:21:37;101052.16;;;-1.21;84.07
59391;BME280;53405;57.012;40.984;2023-02-05T12:27:35;101060.94;;;-1.25;84.80
59391;BME280;53405;57.012;40.984;2023-02-05T12:30:53;101068.34;;;-1.17;84.74
59391;BME280;53405;57.012;40.984;2023-02-05T12:36:50;101057.84;;;-1.14;84.25
59391;BME280;53405;57.012;40.984;2023-02-05T12:42:39;101073.28;;;-1.30;83.84
59391;BME280;53405;57.012;40.984;2023-02-05T12:45:39;101078.00;;;-1.38;84.60
59391;BME280;53405;57.012;40.984;2023-02-05T12:48:59;101077.91;;;-1.37;84.98
59391;BME280;53405;57.012;40.984;2023-02-05T12:57:39;101064.22;;;-1.39;86.41
59391;BME280;53405;57.012;40.984;2023-02-05T13:00:35;101083.25;;;-1.22;84.67
59391;BME280;53405;57.012;40.984;2023-02-05T13:03:29;101077.63;;;-1.31;85.30
59391;BME280;53405;57.012;40.984;2023-02-05T13:09:24;101079.09;;;-1.44;84.27
59391;BME280;53405;57.012;40.984;2023-02-05T13:12:19;101080.78;;;-1.43;85.00
59391;BME280;53405;57.012;40.984;2023-02-05T13:15:21;101083.59;;;-1.48;84.64
59391;BME280;53405;57.012;40.984;2023-02-05T13:21:06;101084.06;;;-1.39;85.32
59391;BME280;53405;57.012;40.984;2023-02-05T13:24:29;101080.50;;;-1.37;85.01
59391;BME280;53405;57.012;40.984;2023-02-05T13:27:41;101071.97;;;-1.39;84.79
59391;BME280;53405;57.012;40.984;2023-02-05T13:30:51;101079.56;;;-1.36;84.39
59391;BME280;53405;57.012;40.984;2023-02-05T13:33:42;101082.69;;;-1.47;83.34
59391;BME280;53405;57.012;40.984;2023-02-05T14:01:21;101111.44;;;-1.35;84.84
59391;BME280;53405;57.012;40.984;2023-02-05T14:04:20;101118.25;;;-1.34;85.03
59391;BME280;53405;57.012;40.984;2023-02-05T14:07:28;101105.88;;;-1.45;85.00
59391;BME280;53405;57.012;40.984;2023-02-05T14:10:29;101112.91;;;-1.49;85.33
59391;BME280;53405;57.012;40.984;2023-02-05T14:13:23;101129.13;;;-1.45;85.63
59391;BME280;53405;57.012;40.984;2023-02-05T14:22:43;101122.72;;;-1.74;86.15
59391;BME280;53405;57.012;40.984;2023-02-05T14:31:46;101129.72;;;-1.76;87.20
59391;BME280;53405;57.012;40.984;2023-02-05T14:34:43;101128.31;;;-1.65;87.98
59391;BME280;53405;57.012;40.984;2023-02-05T14:37:36;101123.00;;;-1.61;88.03
59391;BME280;53405;57.012;40.984;2023-02-05T14:40:33;101147.22;;;-1.45;87.58
59391;BME280;53405;57.012;40.984;2023-02-05T14:43:35;101140.38;;;-1.46;87.93
59391;BME280;53405;57.012;40.984;2023-02-05T14:49:21;101126.31;;;-1.40;87.14
59391;BME280;53405;57.012;40.984;2023-02-05T14:52:25;101139.00;;;-1.36;86.49
59391;BME280;53405;57.012;40.984;2023-02-05T14:58:04;101140.00;;;-1.38;86.00
59391;BME280;53405;57.012;40.984;2023-02-05T15:04:37;101139.16;;;-1.39;85.33
59391;BME280;53405;57.012;40.984;2023-02-05T15:07:27;101140.59;;;-1.51;86.10
59391;BME280;53405;57.012;40.984;2023-02-05T15:10:22;101136.53;;;-1.56;86.85
59391;BME280;53405;57.012;40.984;2023-02-05T15:13:14;101149.22;;;-1.52;86.69
59391;BME280;53405;57.012;40.984;2023-02-05T15:19:10;101149.94;;;-1.48;86.09
59391;BME280;53405;57.012;40.984;2023-02-05T15:22:00;101138.56;;;-1.63;87.18
59391;BME280;53405;57.012;40.984;2023-02-05T15:24:49;101145.22;;;-1.57;86.60
59391;BME280;53405;57.012;40.984;2023-02-05T15:27:44;101146.59;;;-1.69;86.24
59391;BME280;53405;57.012;40.984;2023-02-05T15:30:45;101144.22;;;-1.74;87.50
59391;BME280;53405;57.012;40.984;2023-02-05T15:33:42;101147.44;;;-1.69;88.13
59391;BME280;53405;57.012;40.984;2023-02-05T15:36:46;101147.88;;;-1.59;87.35
59391;BME280;53405;57.012;40.984;2023-02-05T15:42:43;101153.03;;;-1.78;87.66
59391;BME280;53405;57.012;40.984;2023-02-05T15:45:32;101154.63;;;-1.75;89.14
59391;BME280;53405;57.012;40.984;2023-02-05T15:48:24;101135.56;;;-1.73;88.78
59391;BME280;53405;57.012;40.984;2023-02-05T15:54:06;101139.13;;;-1.75;87.76
59391;BME280;53405;57.012;40.984;2023-02-05T15:56:54;101146.59;;;-1.69;87.46
59391;BME280;53405;57.012;40.984;2023-02-05T15:59:43;101141.28;;;-1.66;87.40
59391;BME280;53405;57.012;40.984;2023-02-05T16:02:30;101160.84;;;-1.60;88.21
59391;BME280;53405;57.012;40.984;2023-02-05T16:05:20;101159.78;;;-1.56;87.55
59391;BME280;53405;57.012;40.984;2023-02-05T16:08:20;101162.44;;;-1.58;87.85
59391;BME280;53405;57.012;40.984;2023-02-05T16:11:09;101160.78;;;-1.59;87.96
59391;BME280;53405;57.012;40.984;2023-02-05T16:14:19;101164.13;;;-1.57;88.49
59391;BME280;53405;57.012;40.984;2023-02-05T16:17:20;101166.56;;;-1.54;88.27
59391;BME280;53405;57.012;40.984;2023-02-05T16:20:18;101170.84;;;-1.53;88.43
59391;BME280;53405;57.012;40.984;2023-02-05T16:23:16;101169.97;;;-1.53;88.48
59391;BME280;53405;57.012;40.984;2023-02-05T16:26:21;101168.25;;;-1.53;88.45
59391;BME280;53405;57.012;40.984;2023-02-05T16:29:19;101166.09;;;-1.62;89.17
59391;BME280;53405;57.012;40.984;2023-02-05T16:32:22;101172.78;;;-1.58;88.76
59391;BME280;53405;57.012;40.984;2023-02-05T16:35:36;101169.44;;;-1.60;88.65
59391;BME280;53405;57.012;40.984;2023-02-05T16:38:25;101171.81;;;-1.55;88.77
59391;BME280;53405;57.012;40.984;2023-02-05T16:41:19;101168.88;;;-1.67;88.26
59391;BME280;53405;57.012;40.984;2023-02-05T16:44:25;101174.66;;;-1.61;88.59
59391;BME280;53405;57.012;40.984;2023-02-05T16:47:16;101174.25;;;-1.52;88.23
59391;BME280;53405;57.012;40.984;2023-02-05T16:50:33;101178.66;;;-1.54;88.52
59391;BME280;53405;57.012;40.984;2023-02-05T16:53:28;101182.41;;;-1.61;87.36
59391;BME280;53405;57.012;40.984;2023-02-05T16:56:20;101187.09;;;-1.70;87.22
59391;BME280;53405;57.012;40.984;2023-02-05T16:59:19;101183.81;;;-1.73;87.93
59391;BME280;53405;57.012;40.984;2023-02-05T17:02:27;101187.50;;;-1.79;87.64
59391;BME280;53405;57.012;40.984;2023-02-05T17:05:25;101186.88;;;-1.84;87.39
59391;BME280;53405;57.012;40.984;2023-02-05T17:08:14;101196.56;;;-1.89;87.48
59391;BME280;53405;57.012;40.984;2023-02-05T17:11:05;101190.69;;;-1.93;87.50
59391;BME280;53405;57.012;40.984;2023-02-05T17:14:12;101193.78;;;-1.85;88.02
59391;BME280;53405;57.012;40.984;2023-02-05T17:17:15;101201.47;;;-1.83;87.72
59391;BME280;53405;57.012;40.984;2023-02-05T17:20:16;101204.63;;;-1.76;88.60
59391;BME280;53405;57.012;40.984;2023-02-05T17:23:07;101219.25;;;-1.77;88.10
59391;BME280;53405;57.012;40.984;2023-02-05T17:25:55;101204.34;;;-1.70;87.78
59391;BME280;53405;57.012;40.984;2023-02-05T17:28:54;101210.06;;;-1.83;87.31